Parsival — V2MS — position and weather

sailwx.info

Track history (hours):
 
Tides and Currents Weather Stations Pressure Air Temp Water Temp Dewpoint Dewpoint Depression Visibility Wind Speed Wind Dir Waves Ship Positions

Parsival

Last reported at 2015-Mar-28 15:04 UTC. Time now 2015-Apr-01 01:10 UTC.
Position N 39°17' W 009°50'.

; draft 5 m.

Type: Cargo ship. MMSI: 304010881.

Date/timePositionNaut miles runAvg speedWind from/ knotsBaromVisibWave heightAir tempDewpointWater temp
2015-Mar-28 15:04N 39°17' W 009°50'30 8.0
2015-Mar-28 11:20N 38°47' W 009°51'7 7.8
2015-Mar-28 10:26N 38°40' W 009°50'7 7.7
2015-Mar-28 09:33N 38°33' W 009°48'8 7.6
2015-Mar-28 08:29N 38°25' W 009°46'8 7.3
2015-Mar-28 07:20N 38°17' W 009°43'9 7.2
2015-Mar-28 06:03N 38°08' W 009°40'22 7.7
2015-Mar-28 03:12N 37°47' W 009°34'9 8.4
2015-Mar-28 02:07N 37°38' W 009°32'218 7.6
2015-Mar-26 21:29N 35°59' W 005°28'6 6.3
2015-Mar-26 20:33N 36°01' W 005°21'6 6.1
2015-Mar-26 19:33N 36°02' W 005°14'  
2015-Mar-19 19:06N 37°15' E 024°48'5 9.4
2015-Mar-19 18:33N 37°18' E 024°53'11 2.1
2015-Mar-19 13:33N 37°26' E 025°00'  
Track history (hours):
 
Tides and Currents Weather Stations Pressure Air Temp Water Temp Dewpoint Dewpoint Depression Visibility Wind Speed Wind Dir Waves Ship Positions

Parsival

Last reported at 2015-Mar-28 15:04 UTC. Time now 2015-Apr-01 01:10 UTC.
Position N 39°17' W 009°50'.

; draft 5 m.

Type: Cargo ship. MMSI: 304010881.

Date/timePositionNaut miles runAvg speedWind from/ knotsBaromVisibWave heightAir tempDewpointWater temp
2015-Mar-28 15:04N 39°17' W 009°50'30 8.0
2015-Mar-28 11:20N 38°47' W 009°51'7 7.8
2015-Mar-28 10:26N 38°40' W 009°50'7 7.7
2015-Mar-28 09:33N 38°33' W 009°48'8 7.6
2015-Mar-28 08:29N 38°25' W 009°46'8 7.3
2015-Mar-28 07:20N 38°17' W 009°43'9 7.2
2015-Mar-28 06:03N 38°08' W 009°40'22 7.7
2015-Mar-28 03:12N 37°47' W 009°34'9 8.4
2015-Mar-28 02:07N 37°38' W 009°32'218 7.6
2015-Mar-26 21:29N 35°59' W 005°28'6 6.3
2015-Mar-26 20:33N 36°01' W 005°21'6 6.1
2015-Mar-26 19:33N 36°02' W 005°14'  
2015-Mar-19 19:06N 37°15' E 024°48'5 9.4
2015-Mar-19 18:33N 37°18' E 024°53'11 2.1
2015-Mar-19 13:33N 37°26' E 025°00'  

Dump ship's entire track history